Time;durP1;ratioP1;P1;durP2;ratioP2;P2;SDS_P1;SDS_P2;PMS_P1;PMS_P2;Temp;Humidity;BMP_temperature;BMP_pressure;BME280_temperature;BME280_humidity;BME280_pressure;Samples;Min_cycle;Max_cycle;Signal;HPM_P1;HPM_P2
2022/11/12 00:02:00;;;;;;;5.00;1.60;;;26.40;99.90;;;;;;5109390;28;20805;-78
2022/11/12 00:04:31;;;;;;;4.63;1.65;;;26.50;99.90;;;;;;5107712;28;20626;-78
2022/11/12 00:07:01;;;;;;;3.85;1.60;;;26.60;99.90;;;;;;5116073;27;20198;-76
2022/11/12 00:09:33;;;;;;;2.75;1.30;;;26.70;99.90;;;;;;5130047;27;20194;-78
2022/11/12 00:12:04;;;;;;;3.17;1.20;;;26.80;99.90;;;;;;5130694;27;20267;-78
2022/11/12 00:14:37;;;;;;;1.60;1.27;;;26.80;99.90;;;;;;5116115;27;20222;-77
2022/11/12 00:17:08;;;;;;;3.95;1.33;;;26.80;99.90;;;;;;5114330;27;20194;-77
2022/11/12 00:19:38;;;;;;;3.47;1.33;;;26.80;99.90;;;;;;5122955;27;20193;-77
2022/11/12 00:22:10;;;;;;;4.00;1.10;;;26.70;99.90;;;;;;5121169;27;20277;-77
2022/11/12 00:24:40;;;;;;;2.75;1.05;;;26.70;99.90;;;;;;5111859;27;20195;-77
2022/11/12 00:27:11;;;;;;;1.95;1.20;;;26.80;99.90;;;;;;5124388;27;20194;-77
2022/11/12 00:29:44;;;;;;;5.95;1.40;;;26.90;99.90;;;;;;5118610;27;20194;-79
2022/11/12 00:32:16;;;;;;;1.75;1.23;;;26.90;99.90;;;;;;5107223;27;20310;-78
2022/11/12 00:34:47;;;;;;;2.92;1.20;;;26.90;99.90;;;;;;5125664;27;20221;-78
2022/11/12 00:37:19;;;;;;;2.17;1.40;;;27.00;99.90;;;;;;5106689;28;20673;-79
2022/11/12 00:39:50;;;;;;;3.17;1.50;;;27.20;99.90;;;;;;5106209;27;20194;-78
2022/11/12 00:42:21;;;;;;;2.85;1.30;;;27.20;99.90;;;;;;5107427;28;20238;-78
2022/11/12 00:44:53;;;;;;;2.45;1.55;;;27.20;99.90;;;;;;5106376;28;20290;-78
2022/11/12 00:47:24;;;;;;;3.55;1.70;;;27.30;99.90;;;;;;5110199;27;20204;-78
2022/11/12 00:49:55;;;;;;;3.00;1.50;;;27.30;99.90;;;;;;5111444;27;20217;-78
2022/11/12 00:52:26;;;;;;;3.00;1.88;;;27.40;99.90;;;;;;5114536;27;20198;-78
2022/11/12 00:54:57;;;;;;;2.80;1.80;;;27.50;99.90;;;;;;5124568;27;20214;-78
2022/11/12 00:57:28;;;;;;;4.03;1.70;;;27.50;99.90;;;;;;5110897;27;20251;-78
2022/11/12 01:00:00;;;;;;;3.13;1.40;;;27.60;99.90;;;;;;5117478;27;20293;-78
2022/11/12 01:02:31;;;;;;;2.90;1.17;;;27.70;99.90;;;;;;5106495;28;20234;-77
2022/11/12 01:05:02;;;;;;;4.07;1.40;;;27.80;99.90;;;;;;5118548;27;20203;-77
2022/11/12 01:07:33;;;;;;;2.63;1.13;;;27.80;99.90;;;;;;5122440;27;20560;-78
2022/11/12 01:10:04;;;;;;;3.55;1.55;;;27.60;99.90;;;;;;5124553;27;20668;-77
2022/11/12 01:12:35;;;;;;;2.58;1.10;;;27.60;99.90;;;;;;5126878;27;20190;-78
2022/11/12 01:15:09;;;;;;;2.83;1.27;;;27.60;99.90;;;;;;5102936;28;20203;-78
2022/11/12 01:17:40;;;;;;;2.78;1.40;;;27.60;99.90;;;;;;5107688;28;20209;-79
2022/11/12 01:20:11;;;;;;;3.30;1.70;;;27.70;99.90;;;;;;5091027;28;20585;-79
2022/11/12 01:22:43;;;;;;;3.25;1.48;;;27.70;99.90;;;;;;5091044;28;20209;-78
2022/11/12 01:25:13;;;;;;;2.13;1.30;;;27.70;99.90;;;;;;5136023;28;20224;-78
2022/11/12 01:27:44;;;;;;;1.92;1.38;;;27.60;99.90;;;;;;5133844;28;20613;-78
2022/11/12 01:30:18;;;;;;;2.33;1.23;;;27.50;99.90;;;;;;5121383;28;20679;-78
2022/11/12 01:32:49;;;;;;;1.77;0.90;;;27.50;99.90;;;;;;5108156;28;20190;-79
2022/11/12 01:35:20;;;;;;;2.15;1.50;;;27.50;99.90;;;;;;5100372;28;20281;-78
2022/11/12 01:37:51;;;;;;;2.85;1.20;;;27.50;99.90;;;;;;5129137;28;20197;-78
2022/11/12 01:40:22;;;;;;;2.58;1.20;;;27.50;99.90;;;;;;5117476;28;20194;-78
2022/11/12 01:42:55;;;;;;;2.00;1.00;;;27.70;99.90;;;;;;5103993;28;20671;-78
2022/11/12 01:45:28;;;;;;;1.40;0.90;;;27.70;99.90;;;;;;5099220;28;20202;-79
2022/11/12 01:47:59;;;;;;;2.10;1.02;;;27.70;99.90;;;;;;5109356;28;20199;-79
2022/11/12 01:50:32;;;;;;;3.67;1.33;;;27.80;99.90;;;;;;5125196;28;20568;-81
2022/11/12 01:53:07;;;;;;;2.55;1.10;;;28.00;99.90;;;;;;5129272;28;20224;-79
2022/11/12 01:55:39;;;;;;;3.90;1.20;;;27.90;99.90;;;;;;5117769;28;20231;-79
2022/11/12 01:58:13;;;;;;;2.30;1.33;;;27.80;99.90;;;;;;5106387;28;20201;-80
2022/11/12 02:00:47;;;;;;;4.80;1.30;;;27.90;99.90;;;;;;5099931;28;20768;-79
2022/11/12 02:03:21;;;;;;;2.83;1.13;;;28.00;99.90;;;;;;5100480;28;20199;-80
2022/11/12 02:05:56;;;;;;;5.80;1.40;;;27.90;99.90;;;;;;5092847;28;20198;-80
2022/11/12 02:08:28;;;;;;;5.70;1.33;;;27.90;99.90;;;;;;5094460;28;20200;-78
2022/11/12 02:10:59;;;;;;;2.65;1.25;;;27.90;99.90;;;;;;5108807;28;20197;-77
2022/11/12 02:16:24;;;;;;;3.42;1.20;;;28.10;99.90;;;;;;5062418;28;20286;-78
2022/11/12 02:18:54;;;;;;;2.15;1.30;;;28.20;99.90;;;;;;5086654;28;20198;-78
2022/11/12 02:21:27;;;;;;;2.83;1.38;;;28.10;99.90;;;;;;5111633;28;20198;-78
2022/11/12 02:24:03;;;;;;;3.58;1.42;;;28.10;99.90;;;;;;5111201;28;20665;-78
2022/11/12 02:26:38;;;;;;;4.07;1.35;;;28.10;99.90;;;;;;5112480;28;20233;-78
2022/11/12 02:29:09;;;;;;;5.20;1.20;;;28.10;99.90;;;;;;5110068;28;20194;-78
2022/11/12 02:31:40;;;;;;;4.68;1.30;;;28.00;99.90;;;;;;5102947;28;20199;-77
2022/11/12 02:34:11;;;;;;;4.82;1.35;;;28.00;99.90;;;;;;5097406;28;20228;-78
2022/11/12 02:36:44;;;;;;;3.25;1.40;;;28.00;99.90;;;;;;5104265;28;20279;-77
2022/11/12 02:39:15;;;;;;;1.75;1.20;;;28.00;99.90;;;;;;5107456;28;20190;-77
2022/11/12 02:41:46;;;;;;;2.05;1.38;;;28.00;99.90;;;;;;5103001;28;20270;-77
2022/11/12 02:44:16;;;;;;;4.75;1.50;;;27.90;99.90;;;;;;5093633;28;20210;-77
2022/11/12 02:46:47;;;;;;;5.22;1.77;;;28.00;99.90;;;;;;5092594;28;20199;-77
2022/11/12 02:49:18;;;;;;;2.35;1.50;;;28.20;99.90;;;;;;5094843;28;20682;-78
2022/11/12 02:51:51;;;;;;;3.45;1.48;;;28.10;99.90;;;;;;5113680;28;20198;-79
2022/11/12 02:54:21;;;;;;;3.40;1.67;;;28.30;99.90;;;;;;5105232;28;20218;-77
2022/11/12 02:56:52;;;;;;;3.33;1.58;;;28.20;99.90;;;;;;5113244;28;20209;-77
2022/11/12 02:59:23;;;;;;;4.88;1.50;;;28.30;99.90;;;;;;5085952;28;20226;-78
2022/11/12 03:01:54;;;;;;;2.25;1.38;;;28.20;99.90;;;;;;5096032;27;20722;-78
2022/11/12 03:04:25;;;;;;;2.78;1.25;;;28.30;99.90;;;;;;5116765;27;20198;-78
2022/11/12 03:06:58;;;;;;;5.03;1.70;;;28.50;99.90;;;;;;5120957;27;20188;-78
2022/11/12 03:09:28;;;;;;;4.13;1.67;;;28.70;99.90;;;;;;5097454;27;21498;-77
2022/11/12 03:12:03;;;;;;;3.63;1.58;;;28.80;99.90;;;;;;5131894;27;20196;-78
2022/11/12 03:14:34;;;;;;;3.05;1.50;;;28.70;99.90;;;;;;5113735;27;20228;-78
2022/11/12 03:17:04;;;;;;;2.20;1.30;;;28.90;99.90;;;;;;5108326;28;20202;-78
2022/11/12 03:19:36;;;;;;;3.15;1.60;;;29.00;99.90;;;;;;5126432;27;20194;-78
2022/11/12 03:22:09;;;;;;;6.05;1.80;;;29.00;99.90;;;;;;5102474;27;20605;-78
2022/11/12 03:24:40;;;;;;;3.25;1.70;;;29.00;99.90;;;;;;5096987;28;20205;-79
2022/11/12 03:27:11;;;;;;;3.83;1.50;;;29.10;99.90;;;;;;5113531;28;20197;-78
2022/11/12 03:29:42;;;;;;;6.47;1.50;;;29.20;99.90;;;;;;5117390;27;20224;-78
2022/11/12 03:32:13;;;;;;;5.05;1.52;;;29.40;99.90;;;;;;5108625;28;20621;-78
2022/11/12 03:34:44;;;;;;;2.90;1.60;;;29.50;99.90;;;;;;5128227;27;20230;-79
2022/11/12 03:37:17;;;;;;;5.00;1.90;;;29.60;99.90;;;;;;5119313;27;20205;-79
2022/11/12 03:39:48;;;;;;;3.13;1.60;;;29.70;99.90;;;;;;5096927;28;20716;-80
2022/11/12 03:42:22;;;;;;;2.47;1.40;;;29.80;99.90;;;;;;5114845;27;20194;-80
2022/11/12 03:44:53;;;;;;;3.83;1.40;;;29.80;99.90;;;;;;5118546;27;20251;-80
2022/11/12 03:47:24;;;;;;;2.13;1.33;;;29.80;99.90;;;;;;5109812;28;20205;-81
2022/11/12 03:49:55;;;;;;;2.30;1.20;;;29.80;99.90;;;;;;5113453;27;20194;-79
2022/11/12 03:52:28;;;;;;;4.25;1.33;;;29.80;99.90;;;;;;5116929;27;20205;-79
2022/11/12 03:54:58;;;;;;;2.80;1.15;;;29.90;99.90;;;;;;5117112;27;20229;-80
2022/11/12 03:57:30;;;;;;;2.97;1.13;;;30.00;99.90;;;;;;5120046;27;20191;-80
2022/11/12 04:00:01;;;;;;;1.88;1.20;;;30.10;99.90;;;;;;5114578;27;20229;-81
2022/11/12 04:02:32;;;;;;;2.50;1.13;;;30.00;99.90;;;;;;5110804;27;20261;-82
2022/11/12 04:10:46;;;;;;;1.95;1.15;;;30.00;99.90;;;;;;5131073;27;20201;-80
2022/11/12 04:13:29;;;;;;;3.53;1.50;;;30.10;99.90;;;;;;5119511;27;20281;-80
2022/11/12 04:21:56;;;;;;;1.48;0.77;;;30.20;99.90;;;;;;5112055;27;20198;-79
2022/11/12 04:27:21;;;;;;;2.10;1.23;;;30.30;99.90;;;;;;5116619;27;20196;-78
2022/11/12 04:32:46;;;;;;;1.48;1.08;;;30.40;99.90;;;;;;5101189;28;20628;-81
2022/11/12 04:35:17;;;;;;;3.70;1.00;;;30.40;99.90;;;;;;5112292;27;20305;-79
2022/11/12 04:37:48;;;;;;;4.35;1.17;;;30.50;99.90;;;;;;5129919;27;20200;-80
2022/11/12 04:46:01;;;;;;;2.97;1.35;;;29.90;99.90;;;;;;5110831;27;20198;-79
2022/11/12 04:48:32;;;;;;;2.28;1.35;;;30.00;99.90;;;;;;5104097;27;20282;-79
2022/11/12 04:52:03;;;;;;;1.90;1.02;;;29.80;99.90;;;;;;5101062;28;20206;-79
2022/11/12 04:53:56;;;;;;;1.83;1.10;;;29.60;99.90;;;;;;5104578;28;20202;-79
2022/11/12 04:56:28;;;;;;;2.10;1.00;;;29.30;99.90;;;;;;5128084;27;20308;-80
2022/11/12 04:58:59;;;;;;;2.58;1.30;;;29.10;99.90;;;;;;5122024;27;20569;-79
2022/11/12 05:01:31;;;;;;;4.07;1.20;;;28.80;99.90;;;;;;5113254;27;20226;-79
2022/11/12 05:04:01;;;;;;;1.67;1.27;;;28.80;99.90;;;;;;5104114;27;20197;-79
2022/11/12 05:09:22;;;;;;;5.28;1.40;;;28.50;99.90;;;;;;5090493;27;20205;-80
2022/11/12 05:11:56;;;;;;;2.50;1.50;;;28.30;99.90;;;;;;5111175;28;20285;-80
2022/11/12 05:14:27;;;;;;;4.55;1.52;;;28.20;99.90;;;;;;5111015;28;20194;-80
2022/11/12 05:16:58;;;;;;;2.50;1.15;;;28.10;99.90;;;;;;5119857;27;20649;-80
2022/11/12 05:19:29;;;;;;;1.60;1.10;;;28.10;99.90;;;;;;5108192;28;20198;-79
2022/11/12 05:22:09;;;;;;;5.43;1.33;;;28.10;99.90;;;;;;5130694;27;20281;-79
2022/11/12 05:24:41;;;;;;;4.35;1.80;;;27.90;99.90;;;;;;5114003;27;20294;-79
2022/11/12 05:27:17;;;;;;;2.83;1.60;;;28.00;99.90;;;;;;5119696;28;20215;-81
2022/11/12 05:29:48;;;;;;;7.82;1.83;;;28.10;99.90;;;;;;5113940;28;20700;-79
2022/11/12 05:32:19;;;;;;;2.60;1.60;;;28.00;99.90;;;;;;5129019;28;20300;-80
2022/11/12 05:34:50;;;;;;;3.03;1.45;;;28.00;99.90;;;;;;5107146;28;20273;-80
2022/11/12 05:37:21;;;;;;;3.00;1.60;;;28.00;99.90;;;;;;5123984;28;20186;-80
2022/11/12 05:39:52;;;;;;;3.85;1.70;;;28.10;99.90;;;;;;5118343;28;20186;-80
2022/11/12 05:42:25;;;;;;;4.32;1.73;;;28.00;99.90;;;;;;5109255;28;20262;-79
2022/11/12 05:44:56;;;;;;;3.47;1.42;;;27.80;99.90;;;;;;5128208;28;20237;-79
2022/11/12 05:47:26;;;;;;;4.45;1.70;;;27.80;99.90;;;;;;5098718;28;20202;-81
2022/11/12 05:49:57;;;;;;;5.85;1.83;;;27.80;99.90;;;;;;5090890;28;20191;-80
2022/11/12 05:52:28;;;;;;;3.22;1.70;;;27.60;99.90;;;;;;5110375;28;20289;-80
2022/11/12 05:55:00;;;;;;;4.10;1.45;;;27.50;99.90;;;;;;5106535;28;20277;-81
2022/11/12 05:57:33;;;;;;;4.63;1.60;;;27.30;99.90;;;;;;5126253;27;20725;-79
2022/11/12 06:00:04;;;;;;;3.63;1.42;;;27.00;99.90;;;;;;5112822;27;20702;-80
2022/11/12 06:02:35;;;;;;;7.57;2.10;;;26.80;99.90;;;;;;5100358;28;20226;-83
2022/11/12 06:05:06;;;;;;;5.38;2.00;;;26.60;99.90;;;;;;5119887;27;20190;-82
2022/11/12 06:07:37;;;;;;;6.03;2.10;;;26.50;99.90;;;;;;5126301;27;20194;-82
2022/11/12 06:10:09;;;;;;;4.88;1.80;;;26.40;99.90;;;;;;5099276;28;20194;-81
2022/11/12 06:12:42;;;;;;;6.00;1.90;;;26.30;99.90;;;;;;5095861;28;20195;-81
2022/11/12 06:15:13;;;;;;;5.10;1.83;;;26.20;99.90;;;;;;5134185;27;20383;-81
2022/11/12 06:17:45;;;;;;;5.15;1.70;;;26.10;99.90;;;;;;5131784;27;20196;-81
2022/11/12 06:20:17;;;;;;;4.85;1.77;;;26.00;99.90;;;;;;5112955;27;20203;-83
2022/11/12 06:22:47;;;;;;;4.22;1.70;;;25.90;99.90;;;;;;5120468;27;20195;-79
2022/11/12 06:25:19;;;;;;;6.05;1.80;;;25.80;99.90;;;;;;5098039;28;20208;-79
2022/11/12 06:27:51;;;;;;;4.05;1.58;;;25.60;99.90;;;;;;5112143;28;20230;-79
2022/11/12 06:30:22;;;;;;;5.07;1.92;;;25.60;99.90;;;;;;5117030;27;20632;-79
2022/11/12 06:32:54;;;;;;;5.05;2.17;;;25.50;99.90;;;;;;5113339;27;20205;-79
2022/11/12 06:35:25;;;;;;;4.25;1.98;;;25.40;99.90;;;;;;5115577;27;20304;-78
2022/11/12 06:37:56;;;;;;;6.18;2.13;;;25.30;99.90;;;;;;5112822;28;20586;-78
2022/11/12 06:40:27;;;;;;;4.93;1.92;;;25.20;99.90;;;;;;5115658;27;20225;-78
2022/11/12 06:43:03;;;;;;;4.72;1.73;;;25.20;99.90;;;;;;5117837;27;20198;-78
2022/11/12 06:45:34;;;;;;;5.32;2.08;;;25.00;99.90;;;;;;5113115;28;20247;-77
2022/11/12 06:48:05;;;;;;;3.85;2.10;;;25.00;99.90;;;;;;5131247;27;20193;-77
2022/11/12 06:50:36;;;;;;;4.78;1.90;;;25.00;99.90;;;;;;5106167;28;20277;-77
2022/11/12 06:53:07;;;;;;;6.30;2.08;;;25.00;99.90;;;;;;5114050;28;20202;-79
2022/11/12 06:55:38;;;;;;;4.00;1.75;;;24.90;99.90;;;;;;5113828;27;20366;-79
2022/11/12 06:58:11;;;;;;;7.38;1.98;;;24.90;99.90;;;;;;5107238;28;20187;-79
2022/11/12 07:00:43;;;;;;;3.30;1.70;;;24.80;99.90;;;;;;5104440;27;20190;-79
2022/11/12 07:03:17;;;;;;;5.32;1.90;;;24.90;99.90;;;;;;5097678;28;20241;-80
2022/11/12 07:05:48;;;;;;;4.60;1.77;;;24.90;99.90;;;;;;5109694;28;20195;-80
2022/11/12 07:08:19;;;;;;;4.55;1.77;;;25.00;99.90;;;;;;5121388;27;20656;-81
2022/11/12 07:10:49;;;;;;;5.10;1.70;;;24.90;99.90;;;;;;5127441;27;20276;-79
2022/11/12 07:13:23;;;;;;;6.82;2.08;;;24.90;99.90;;;;;;5096678;28;20206;-79
2022/11/12 07:15:54;;;;;;;6.80;3.28;;;24.90;99.90;;;;;;5117216;27;20213;-79
2022/11/12 07:18:26;;;;;;;7.65;3.08;;;24.90;99.90;;;;;;5125214;27;20191;-80
2022/11/12 07:21:02;;;;;;;3.67;1.85;;;25.00;99.90;;;;;;5120427;27;20277;-81
2022/11/12 07:23:34;;;;;;;4.80;1.80;;;24.90;99.90;;;;;;5113037;28;20219;-83
2022/11/12 07:26:07;;;;;;;4.85;1.85;;;24.90;99.90;;;;;;5116050;27;20281;-82
2022/11/12 07:28:40;;;;;;;3.85;1.90;;;24.90;99.90;;;;;;5104840;28;20194;-81
2022/11/12 07:31:13;;;;;;;4.93;1.80;;;24.80;99.90;;;;;;5107863;27;20269;-81
2022/11/12 07:33:47;;;;;;;4.55;1.70;;;24.70;99.90;;;;;;5132753;27;20194;-81
2022/11/12 07:36:19;;;;;;;2.97;1.60;;;24.70;99.90;;;;;;5106136;27;20211;-82
2022/11/12 07:38:52;;;;;;;6.25;1.70;;;24.60;99.90;;;;;;5092136;28;20282;-81
2022/11/12 07:41:25;;;;;;;3.40;1.58;;;24.50;99.90;;;;;;5099754;27;20657;-81
2022/11/12 07:43:57;;;;;;;7.97;2.03;;;24.40;99.90;;;;;;5105518;28;20274;-81
2022/11/12 07:46:30;;;;;;;7.78;2.38;;;24.40;99.90;;;;;;5107798;27;20274;-80
2022/11/12 07:49:01;;;;;;;4.32;1.60;;;24.40;99.90;;;;;;5102931;27;20279;-82
2022/11/12 07:51:32;;;;;;;6.80;2.15;;;24.30;99.90;;;;;;5119186;27;20194;-81
2022/11/12 07:54:03;;;;;;;5.90;1.73;;;24.30;99.90;;;;;;5120999;27;20201;-81
2022/11/12 07:56:34;;;;;;;5.80;2.15;;;24.20;99.90;;;;;;5111613;27;20223;-81
2022/11/12 07:59:10;;;;;;;7.00;2.00;;;24.30;99.90;;;;;;5115753;27;20201;-81
2022/11/12 08:01:42;;;;;;;6.05;1.80;;;24.10;99.90;;;;;;5107464;27;20313;-81
2022/11/12 08:04:13;;;;;;;5.18;1.70;;;24.00;99.90;;;;;;5111191;28;20199;-81
2022/11/12 08:06:44;;;;;;;5.72;1.70;;;24.00;99.90;;;;;;5126252;27;20216;-80
2022/11/12 08:09:15;;;;;;;6.05;1.90;;;23.90;99.90;;;;;;5099233;27;20208;-81
2022/11/12 08:11:46;;;;;;;4.80;1.90;;;23.80;99.90;;;;;;5111015;27;20679;-80
2022/11/12 08:14:19;;;;;;;6.35;2.00;;;23.70;99.90;;;;;;5111442;28;20587;-81
2022/11/12 08:16:50;;;;;;;5.70;1.83;;;23.70;99.90;;;;;;5124852;27;20218;-81
2022/11/12 08:19:21;;;;;;;4.20;2.10;;;23.70;99.90;;;;;;5109925;27;20316;-81
2022/11/12 08:21:51;;;;;;;7.43;1.73;;;23.70;99.90;;;;;;5124332;27;20204;-82
2022/11/12 08:24:22;;;;;;;4.68;1.98;;;23.60;99.90;;;;;;5132571;27;20725;-81
2022/11/12 08:26:54;;;;;;;8.88;2.22;;;23.60;99.90;;;;;;5120511;27;20191;-82
2022/11/12 08:29:26;;;;;;;6.40;2.25;;;23.60;99.90;;;;;;5111420;28;20195;-81
2022/11/12 08:31:57;;;;;;;7.68;2.60;;;23.60;99.90;;;;;;5099225;28;20187;-81
2022/11/12 08:34:28;;;;;;;6.57;2.42;;;23.60;99.90;;;;;;5096137;27;20201;-81
2022/11/12 08:36:59;;;;;;;5.90;2.17;;;23.50;99.90;;;;;;5100897;27;20215;-81
2022/11/12 08:39:30;;;;;;;5.90;2.97;;;23.40;99.90;;;;;;5106263;28;20530;-81
2022/11/12 08:42:01;;;;;;;4.57;2.38;;;23.50;99.90;;;;;;5096391;28;20191;-81
2022/11/12 08:44:34;;;;;;;6.22;2.40;;;23.50;99.90;;;;;;5091450;28;20213;-81
2022/11/12 08:47:06;;;;;;;5.55;2.28;;;23.50;99.90;;;;;;5118848;27;20553;-81
2022/11/12 08:49:36;;;;;;;6.90;2.75;;;23.40;99.90;;;;;;5096932;27;20258;-81
2022/11/12 08:52:07;;;;;;;5.63;2.42;;;23.40;99.90;;;;;;5108515;28;20462;-81
2022/11/12 08:54:38;;;;;;;5.93;2.50;;;23.40;99.90;;;;;;5111978;28;20573;-83
2022/11/12 08:57:09;;;;;;;6.35;2.88;;;23.40;99.90;;;;;;5124684;28;20205;-82
2022/11/12 08:59:42;;;;;;;7.00;2.50;;;23.40;99.90;;;;;;5114062;27;20285;-82
2022/11/12 09:02:15;;;;;;;7.90;2.53;;;23.40;99.90;;;;;;5103109;27;20354;-82
2022/11/12 09:04:47;;;;;;;4.80;2.15;;;23.30;99.90;;;;;;5130930;27;20194;-83
2022/11/12 09:07:17;;;;;;;5.88;2.30;;;23.30;99.90;;;;;;5100842;27;20210;-82
2022/11/12 09:09:48;;;;;;;7.60;2.40;;;23.20;99.90;;;;;;5112878;27;20209;-83
2022/11/12 09:12:19;;;;;;;6.55;2.70;;;23.30;99.90;;;;;;5103533;27;20638;-82
2022/11/12 09:14:52;;;;;;;5.85;2.20;;;23.30;99.90;;;;;;5118262;27;20190;-83
2022/11/12 09:17:23;;;;;;;6.50;2.40;;;23.30;99.90;;;;;;5126079;27;20692;-82
2022/11/12 09:19:55;;;;;;;6.88;2.33;;;23.30;99.90;;;;;;5114253;27;20261;-82
2022/11/12 09:22:26;;;;;;;7.30;2.53;;;23.30;99.90;;;;;;5115725;27;20310;-82
2022/11/12 09:24:57;;;;;;;8.70;2.63;;;23.40;99.90;;;;;;5115014;27;20194;-81
2022/11/12 09:27:31;;;;;;;6.38;2.47;;;23.30;99.90;;;;;;5107674;28;20199;-81
2022/11/12 09:30:05;;;;;;;8.40;2.78;;;23.40;99.90;;;;;;5104340;28;20198;-81
2022/11/12 09:32:36;;;;;;;6.40;2.70;;;23.30;99.90;;;;;;5107661;28;20519;-80
2022/11/12 09:35:08;;;;;;;7.25;2.53;;;23.30;99.90;;;;;;5109760;27;20245;-80
2022/11/12 09:37:42;;;;;;;7.53;2.67;;;23.30;99.90;;;;;;5137099;27;20281;-79
2022/11/12 09:40:19;;;;;;;6.03;2.33;;;23.30;99.90;;;;;;5136267;27;20197;-79
2022/11/12 09:42:54;;;;;;;4.88;2.30;;;23.30;99.90;;;;;;5105063;28;20204;-79
2022/11/12 09:45:31;;;;;;;4.18;2.03;;;23.30;99.90;;;;;;5115273;27;20201;-81
2022/11/12 09:48:08;;;;;;;5.38;2.28;;;23.20;99.90;;;;;;5126564;27;20205;-80
2022/11/12 09:50:44;;;;;;;6.93;2.60;;;23.20;99.90;;;;;;5116892;27;20201;-80
2022/11/12 09:53:18;;;;;;;8.48;3.00;;;23.20;99.90;;;;;;5119830;27;20204;-80
2022/11/12 09:55:52;;;;;;;7.05;2.47;;;23.20;99.90;;;;;;5133840;27;20193;-80
2022/11/12 09:58:23;;;;;;;6.95;2.70;;;23.20;99.90;;;;;;5131591;27;20213;-81
2022/11/12 10:01:03;;;;;;;6.65;2.03;;;23.20;99.90;;;;;;5124517;27;20193;-81
2022/11/12 10:03:40;;;;;;;5.80;1.98;;;23.20;99.90;;;;;;5105028;28;20274;-80
2022/11/12 10:06:16;;;;;;;5.28;1.92;;;23.20;99.90;;;;;;5079488;28;20706;-80
2022/11/12 10:08:54;;;;;;;4.60;1.60;;;23.30;99.90;;;;;;5092590;28;20217;-81
2022/11/12 10:16:41;;;;;;;4.55;1.73;;;23.30;99.90;;;;;;5094315;28;20565;-81
2022/11/12 10:18:04;;;;;;;8.40;2.15;;;23.20;99.90;;;;;;5083288;28;20248;-79
2022/11/12 10:20:44;;;;;;;5.43;2.83;;;23.30;99.90;;;;;;5094224;28;20226;-79
2022/11/12 10:23:22;;;;;;;8.10;4.72;;;23.20;99.90;;;;;;5093384;28;20290;-79
2022/11/12 10:25:57;;;;;;;11.30;7.68;;;23.20;99.90;;;;;;5086989;28;20208;-80
2022/11/12 10:28:30;;;;;;;10.63;5.97;;;23.20;99.90;;;;;;5096434;28;20198;-80
2022/11/12 10:31:08;;;;;;;6.32;2.20;;;23.20;99.90;;;;;;5092826;28;20245;-80
2022/11/12 10:33:41;;;;;;;4.82;2.25;;;23.20;99.90;;;;;;5078133;28;20196;-80
2022/11/12 10:36:32;;;;;;;6.55;2.33;;;23.20;99.90;;;;;;5075530;28;20237;-80
2022/11/12 10:39:05;;;;;;;5.05;2.20;;;23.20;99.90;;;;;;5076464;28;20641;-80
2022/11/12 10:41:36;;;;;;;5.15;2.30;;;23.20;99.90;;;;;;5073597;28;20659;-81
2022/11/12 10:44:08;;;;;;;5.53;2.45;;;23.20;99.90;;;;;;5086131;28;20196;-80
2022/11/12 10:46:40;;;;;;;4.60;2.42;;;23.10;99.90;;;;;;5077352;28;20195;-81
2022/11/12 10:49:27;;;;;;;5.32;2.20;;;23.10;99.90;;;;;;5074229;28;20216;-80
2022/11/12 10:52:00;;;;;;;6.75;2.40;;;23.10;99.90;;;;;;5076361;28;20220;-80
2022/11/12 10:54:38;;;;;;;5.10;2.28;;;23.10;99.90;;;;;;5071617;28;20242;-80
2022/11/12 10:57:22;;;;;;;4.85;2.55;;;23.10;99.90;;;;;;5082238;28;20219;-80
2022/11/12 11:00:11;;;;;;;7.40;2.65;;;23.10;99.90;;;;;;5073199;28;20222;-80
2022/11/12 11:02:50;;;;;;;4.60;1.92;;;23.10;99.90;;;;;;5103485;27;20222;-81
2022/11/12 11:05:50;;;;;;;5.65;1.92;;;23.10;99.90;;;;;;5116993;27;20210;-80
2022/11/12 11:08:36;;;;;;;5.93;2.35;;;23.00;99.90;;;;;;5109286;27;20207;-80
2022/11/12 11:11:25;;;;;;;5.63;2.15;;;23.00;99.90;;;;;;5121495;27;20206;-80
2022/11/12 11:14:12;;;;;;;5.82;2.30;;;23.00;99.90;;;;;;5105878;27;20297;-80
2022/11/12 11:16:53;;;;;;;6.78;2.38;;;23.00;99.90;;;;;;5101697;27;20225;-81
2022/11/12 11:19:24;;;;;;;4.95;2.35;;;23.00;99.90;;;;;;5113243;27;20203;-81
2022/11/12 11:22:14;;;;;;;6.60;2.28;;;23.00;99.90;;;;;;5111765;28;20202;-81
2022/11/12 11:24:53;;;;;;;3.72;2.30;;;22.90;99.90;;;;;;5103212;28;20301;-81
2022/11/12 11:27:34;;;;;;;6.18;2.10;;;22.90;99.90;;;;;;5113887;27;20189;-81
2022/11/12 11:30:14;;;;;;;6.57;2.20;;;22.90;99.90;;;;;;5126012;27;20195;-81
2022/11/12 11:33:15;;;;;;;5.28;2.15;;;22.90;99.90;;;;;;5123771;27;20647;-81
2022/11/12 11:35:59;;;;;;;4.88;2.05;;;22.90;99.90;;;;;;5113383;27;20190;-81
2022/11/12 11:38:48;;;;;;;4.78;2.08;;;22.80;99.90;;;;;;5121369;27;20308;-80
2022/11/12 11:41:38;;;;;;;7.72;2.25;;;22.80;99.90;;;;;;5119821;27;20332;-80
2022/11/12 11:44:23;;;;;;;8.60;3.60;;;22.80;99.90;;;;;;5130749;27;20277;-80
2022/11/12 11:47:08;;;;;;;6.88;3.10;;;22.80;99.90;;;;;;5111616;27;20198;-81
2022/11/12 11:49:52;;;;;;;7.80;2.60;;;22.70;99.90;;;;;;5122644;27;20194;-80
2022/11/12 11:52:47;;;;;;;6.40;2.30;;;22.70;99.90;;;;;;5109016;27;20570;-80
2022/11/12 11:55:48;;;;;;;7.50;2.40;;;22.80;99.90;;;;;;5116611;27;20215;-82
2022/11/12 11:58:46;;;;;;;4.57;2.22;;;22.80;99.90;;;;;;5101094;28;20226;-82
2022/11/12 12:01:24;;;;;;;5.50;2.15;;;22.70;99.90;;;;;;5097475;27;20224;-82
2022/11/12 12:04:25;;;;;;;5.85;2.00;;;22.70;99.90;;;;;;5103945;27;20285;-82
2022/11/12 12:07:11;;;;;;;7.10;2.30;;;22.70;99.90;;;;;;5093148;27;20290;-82
2022/11/12 12:09:46;;;;;;;5.53;2.20;;;22.70;99.90;;;;;;5116220;28;20289;-81
2022/11/12 12:12:32;;;;;;;4.93;1.95;;;22.70;99.90;;;;;;5120812;27;20194;-82
2022/11/12 12:15:25;;;;;;;6.30;2.30;;;22.60;99.90;;;;;;5122721;27;20231;-82
2022/11/12 12:18:03;;;;;;;4.50;2.45;;;22.60;99.90;;;;;;5110426;27;20714;-82
2022/11/12 12:20:43;;;;;;;7.43;2.05;;;22.60;99.90;;;;;;5099380;28;20671;-81
2022/11/12 12:23:22;;;;;;;7.93;2.22;;;22.60;99.90;;;;;;5097451;28;20195;-82
2022/11/12 12:25:55;;;;;;;6.65;2.00;;;22.60;99.90;;;;;;5117339;27;20225;-82
2022/11/12 12:28:36;;;;;;;5.72;1.85;;;22.50;99.90;;;;;;5112036;28;20649;-81
2022/11/12 12:31:11;;;;;;;5.97;2.00;;;22.50;99.90;;;;;;5104050;28;20305;-81
2022/11/12 12:33:49;;;;;;;3.22;1.92;;;22.50;99.90;;;;;;5095104;28;20211;-80
2022/11/12 12:36:26;;;;;;;6.28;2.05;;;22.40;99.90;;;;;;5106379;27;20218;-81
2022/11/12 12:39:15;;;;;;;7.43;2.10;;;22.40;99.90;;;;;;5125325;27;20684;-81
2022/11/12 12:41:51;;;;;;;5.13;2.25;;;22.40;99.90;;;;;;5104029;27;20211;-80
2022/11/12 12:44:58;;;;;;;7.60;2.60;;;22.40;99.90;;;;;;5108000;27;20680;-80
2022/11/12 12:47:16;;;;;;;4.15;1.88;;;22.50;99.90;;;;;;5098903;28;20202;-80
2022/11/12 12:49:49;;;;;;;5.78;2.45;;;22.50;99.90;;;;;;5112743;27;20298;-82
2022/11/12 12:52:20;;;;;;;4.60;2.28;;;22.50;99.90;;;;;;5118452;27;20221;-82
2022/11/12 12:55:04;;;;;;;6.30;2.55;;;22.40;99.90;;;;;;5100428;27;20213;-82
2022/11/12 12:57:40;;;;;;;5.40;2.40;;;22.40;99.90;;;;;;5115112;27;20293;-81
2022/11/12 13:00:36;;;;;;;4.13;2.42;;;22.40;99.90;;;;;;5096360;28;20205;-80
2022/11/12 13:03:08;;;;;;;3.70;2.22;;;22.40;99.90;;;;;;5104093;28;20788;-81
2022/11/12 13:05:41;;;;;;;6.35;2.15;;;22.40;99.90;;;;;;5119948;27;20214;-81
2022/11/12 13:08:15;;;;;;;5.57;2.42;;;22.30;99.90;;;;;;5122967;27;20248;-81
2022/11/12 13:10:51;;;;;;;5.50;2.60;;;22.30;99.90;;;;;;5111249;27;20676;-81
2022/11/12 13:13:37;;;;;;;6.05;2.80;;;22.40;99.90;;;;;;5117769;28;20224;-81
2022/11/12 13:16:10;;;;;;;6.13;2.95;;;22.40;99.90;;;;;;5104980;28;20282;-82
2022/11/12 13:19:03;;;;;;;5.90;2.50;;;22.40;99.90;;;;;;5113514;27;20222;-80
2022/11/12 13:21:34;;;;;;;7.03;3.10;;;22.40;99.90;;;;;;5110241;28;20273;-82
2022/11/12 13:24:09;;;;;;;7.22;2.63;;;22.40;99.90;;;;;;5118094;27;20193;-81
2022/11/12 13:26:49;;;;;;;6.28;2.60;;;22.30;99.90;;;;;;5091757;28;20448;-82
2022/11/12 13:29:40;;;;;;;8.25;2.83;;;22.30;99.90;;;;;;5106675;28;20214;-81
2022/11/12 13:32:42;;;;;;;5.60;2.20;;;22.30;99.90;;;;;;5104289;28;20206;-82
2022/11/12 13:35:33;;;;;;;7.75;2.67;;;22.30;99.90;;;;;;5114810;28;20198;-81
2022/11/12 13:38:14;;;;;;;8.35;2.60;;;22.20;99.90;;;;;;5109466;28;20218;-81
2022/11/12 13:40:53;;;;;;;6.55;2.60;;;22.20;99.90;;;;;;5110612;28;20203;-81
2022/11/12 13:43:34;;;;;;;6.57;2.60;;;22.20;99.90;;;;;;5125851;28;20190;-80
2022/11/12 13:46:30;;;;;;;7.20;2.60;;;22.20;99.90;;;;;;5108162;28;20196;-81
2022/11/12 13:49:07;;;;;;;6.63;2.53;;;22.20;99.90;;;;;;5106450;28;20193;-81
2022/11/12 13:51:46;;;;;;;7.75;3.25;;;22.20;99.90;;;;;;5101045;28;20197;-81
2022/11/12 13:54:34;;;;;;;5.75;2.70;;;22.20;99.90;;;;;;5112506;28;20264;-81
2022/11/12 13:57:28;;;;;;;5.03;2.72;;;22.10;99.90;;;;;;5110058;28;20222;-81
2022/11/12 14:00:24;;;;;;;6.75;3.05;;;22.10;99.90;;;;;;5130038;28;20282;-80